DAL1020 KBIL-KSLC
Flight info
| Callsign | DAL1020 |
|---|---|
| Flight time | N/A |
| Altitude | 34000 |
| Route | BIL NELKS SYMPL JAC CARTR1 |
| Aircraft | A320/M-SDE3FGHIRWY/LB1 |
Departure
| Time | 2026-04-26 23:28 |
|---|---|
| Airport | Billings Logan International Airport (KBIL) |
Arrival
| Time | N/A |
|---|---|
| Airport | Salt Lake City International Airport (KSLC) |
| Time | Latitude | Longitude | Altitude | Speed | Heading |
|---|---|---|---|---|---|
| 2026-04-26 22:58 | 45.80449 | -108.53517 | 3553 ft | 0 kts | 216° |
| 2026-04-26 23:16 | 45.80461 | -108.53505 | 3554 ft | 4 kts | 189° |
| 2026-04-26 23:17 | 45.80479 | -108.53516 | 3554 ft | 4 kts | 107° |
| 2026-04-26 23:17 | 45.80481 | -108.53531 | 3553 ft | 1 kts | 101° |
| 2026-04-26 23:17 | 45.80482 | -108.53531 | 3553 ft | 0 kts | 101° |
| 2026-04-26 23:20 | 45.80481 | -108.53531 | 3553 ft | 0 kts | 101° |
| 2026-04-26 23:22 | 45.80479 | -108.53514 | 3555 ft | 6 kts | 101° |
| 2026-04-26 23:22 | 45.80478 | -108.53452 | 3557 ft | 6 kts | 82° |
| 2026-04-26 23:22 | 45.80486 | -108.53405 | 3557 ft | 4 kts | 73° |
| 2026-04-26 23:23 | 45.80490 | -108.53386 | 3557 ft | 0 kts | 71° |
| 2026-04-26 23:24 | 45.80492 | -108.53378 | 3557 ft | 4 kts | 73° |
| 2026-04-26 23:25 | 45.80488 | -108.53268 | 3557 ft | 18 kts | 96° |
| 2026-04-26 23:25 | 45.80477 | -108.53088 | 3556 ft | 18 kts | 96° |
| 2026-04-26 23:25 | 45.80441 | -108.52916 | 3555 ft | 18 kts | 111° |
| 2026-04-26 23:25 | 45.80393 | -108.52748 | 3554 ft | 18 kts | 112° |
| 2026-04-26 23:26 | 45.80345 | -108.52577 | 3553 ft | 18 kts | 111° |
| 2026-04-26 23:26 | 45.80298 | -108.52407 | 3553 ft | 18 kts | 111° |
| 2026-04-26 23:26 | 45.80251 | -108.52236 | 3552 ft | 19 kts | 112° |
| 2026-04-26 23:26 | 45.80199 | -108.52068 | 3550 ft | 19 kts | 114° |
| 2026-04-26 23:27 | 45.80144 | -108.51895 | 3549 ft | 18 kts | 112° |
| 2026-04-26 23:27 | 45.80121 | -108.51747 | 3548 ft | 0 kts | 73° |
| 2026-04-26 23:27 | 45.80130 | -108.51723 | 3548 ft | 9 kts | 53° |
| 2026-04-26 23:27 | 45.80183 | -108.51688 | 3548 ft | 14 kts | 359° |
| 2026-04-26 23:28 | 45.80253 | -108.51831 | 3547 ft | 33 kts | 292° |
| 2026-04-26 23:28 | 45.80447 | -108.52489 | 3553 ft | 107 kts | 291° |
| 2026-04-26 23:28 | 45.80789 | -108.53750 | 3673 ft | 154 kts | 296° |
| 2026-04-26 23:28 | 45.81199 | -108.55178 | 4365 ft | 157 kts | 300° |
| 2026-04-26 23:29 | 45.81629 | -108.56645 | 5178 ft | 161 kts | 299° |
| 2026-04-26 23:29 | 45.82033 | -108.58133 | 5904 ft | 160 kts | 298° |
| 2026-04-26 23:29 | 45.82410 | -108.59631 | 6613 ft | 162 kts | 286° |
| 2026-04-26 23:29 | 45.82227 | -108.61224 | 7193 ft | 173 kts | 239° |
| 2026-04-26 23:30 | 45.81217 | -108.62661 | 6971 ft | 236 kts | 212° |
| 2026-04-26 23:30 | 45.79743 | -108.64091 | 7119 ft | 279 kts | 216° |
| 2026-04-26 23:30 | 45.78170 | -108.65868 | 7858 ft | 289 kts | 219° |
| 2026-04-26 23:30 | 45.76643 | -108.67749 | 8933 ft | 295 kts | 219° |
| 2026-04-26 23:31 | 45.75052 | -108.69765 | 9531 ft | 317 kts | 220° |
| 2026-04-26 23:31 | 45.73333 | -108.71969 | 9837 ft | 347 kts | 219° |
| 2026-04-26 23:31 | 45.71494 | -108.74319 | 9965 ft | 350 kts | 220° |
| 2026-04-26 23:31 | 45.69728 | -108.76568 | 10043 ft | 330 kts | 220° |
| 2026-04-26 23:32 | 45.68060 | -108.78696 | 10041 ft | 312 kts | 220° |
| 2026-04-26 23:32 | 45.66486 | -108.80707 | 10049 ft | 295 kts | 221° |
| 2026-04-26 23:32 | 45.65001 | -108.82611 | 10049 ft | 278 kts | 220° |
| 2026-04-26 23:32 | 45.63594 | -108.84396 | 10032 ft | 265 kts | 219° |
| 2026-04-26 23:33 | 45.62147 | -108.86219 | 10038 ft | 299 kts | 220° |
| 2026-04-26 23:33 | 45.60479 | -108.88321 | 10047 ft | 330 kts | 221° |
| 2026-04-26 23:33 | 45.58729 | -108.90532 | 10029 ft | 342 kts | 220° |
| 2026-04-26 23:33 | 45.56917 | -108.92804 | 10040 ft | 347 kts | 220° |
| 2026-04-26 23:34 | 45.55155 | -108.95017 | 10040 ft | 336 kts | 220° |
| 2026-04-26 23:34 | 45.53447 | -108.97166 | 10040 ft | 319 kts | 220° |
| 2026-04-26 23:34 | 45.51822 | -108.99213 | 10027 ft | 305 kts | 220° |
| 2026-04-26 23:34 | 45.50257 | -109.01184 | 9985 ft | 299 kts | 221° |
| 2026-04-26 23:35 | 45.48715 | -109.03117 | 10175 ft | 295 kts | 222° |
| 2026-04-26 23:35 | 45.47134 | -109.05101 | 10315 ft | 312 kts | 222° |
| 2026-04-26 23:35 | 45.45447 | -109.07221 | 10689 ft | 333 kts | 222° |
| 2026-04-26 23:35 | 45.43691 | -109.09420 | 11465 ft | 337 kts | 221° |
| 2026-04-26 23:36 | 45.41934 | -109.11621 | 12417 ft | 337 kts | 221° |
| 2026-04-26 23:36 | 45.40175 | -109.13823 | 13387 ft | 337 kts | 221° |
| 2026-04-26 23:36 | 45.38405 | -109.16036 | 14148 ft | 342 kts | 221° |
| 2026-04-26 23:36 | 45.36617 | -109.18272 | 14940 ft | 342 kts | 221° |
| 2026-04-26 23:37 | 45.34822 | -109.20514 | 15715 ft | 344 kts | 221° |
| 2026-04-26 23:37 | 45.33027 | -109.22764 | 16525 ft | 344 kts | 222° |
| 2026-04-26 23:37 | 45.31231 | -109.25047 | 17201 ft | 349 kts | 222° |
| 2026-04-26 23:37 | 45.29429 | -109.27348 | 18042 ft | 348 kts | 222° |
| 2026-04-26 23:38 | 45.27619 | -109.29655 | 18651 ft | 353 kts | 222° |
| 2026-04-26 23:38 | 45.25786 | -109.31985 | 19292 ft | 355 kts | 222° |
| 2026-04-26 23:38 | 45.23936 | -109.34330 | 19854 ft | 358 kts | 222° |
| 2026-04-26 23:38 | 45.22074 | -109.36686 | 20498 ft | 360 kts | 222° |
| 2026-04-26 23:39 | 45.20192 | -109.39064 | 21077 ft | 364 kts | 222° |
| 2026-04-26 23:39 | 45.18295 | -109.41461 | 21661 ft | 366 kts | 222° |
| 2026-04-26 23:39 | 45.16378 | -109.43848 | 22348 ft | 367 kts | 220° |
| 2026-04-26 23:39 | 45.14312 | -109.45992 | 22937 ft | 370 kts | 214° |
| 2026-04-26 23:40 | 45.12095 | -109.47894 | 23489 ft | 374 kts | 212° |
| 2026-04-26 23:40 | 45.09859 | -109.49795 | 23975 ft | 376 kts | 213° |
| 2026-04-26 23:40 | 45.07619 | -109.51715 | 24514 ft | 378 kts | 213° |
| 2026-04-26 23:40 | 45.05363 | -109.53653 | 24925 ft | 380 kts | 213° |
| 2026-04-26 23:41 | 45.03127 | -109.55561 | 25421 ft | 381 kts | 213° |
| 2026-04-26 23:41 | 45.00865 | -109.57528 | 25931 ft | 383 kts | 213° |
| 2026-04-26 23:41 | 44.98590 | -109.59494 | 26402 ft | 385 kts | 212° |
| 2026-04-26 23:41 | 44.96291 | -109.61467 | 26817 ft | 387 kts | 212° |
| 2026-04-26 23:42 | 44.93982 | -109.63446 | 27267 ft | 389 kts | 212° |
| 2026-04-26 23:42 | 44.89323 | -109.67414 | 28122 ft | 393 kts | 212° |
| 2026-04-26 23:42 | 44.86974 | -109.69414 | 28505 ft | 395 kts | 212° |
| 2026-04-26 23:43 | 44.84611 | -109.71426 | 28868 ft | 397 kts | 212° |
| 2026-04-26 23:43 | 44.82233 | -109.73449 | 29090 ft | 402 kts | 212° |
| 2026-04-26 23:43 | 44.79830 | -109.75488 | 29436 ft | 404 kts | 212° |
| 2026-04-26 23:43 | 44.77420 | -109.77533 | 29909 ft | 404 kts | 212° |
| 2026-04-26 23:44 | 44.75014 | -109.79578 | 30178 ft | 407 kts | 212° |
| 2026-04-26 23:44 | 44.72575 | -109.81646 | 30458 ft | 410 kts | 212° |
| 2026-04-26 23:44 | 44.70128 | -109.83720 | 30769 ft | 412 kts | 212° |
| 2026-04-26 23:44 | 44.67665 | -109.85794 | 31067 ft | 413 kts | 212° |
| 2026-04-26 23:45 | 44.65203 | -109.87878 | 31435 ft | 413 kts | 212° |
| 2026-04-26 23:45 | 44.63577 | -109.89261 | 31697 ft | 413 kts | 212° |
| 2026-04-26 23:45 | 44.60282 | -109.92040 | 32219 ft | 412 kts | 212° |
| 2026-04-26 23:45 | 44.57816 | -109.94114 | 32459 ft | 415 kts | 212° |
| 2026-04-26 23:46 | 44.55337 | -109.96184 | 32771 ft | 415 kts | 212° |
| 2026-04-26 23:46 | 44.52874 | -109.98249 | 33317 ft | 410 kts | 212° |
| 2026-04-26 23:46 | 44.50438 | -110.00307 | 33738 ft | 409 kts | 212° |
| 2026-04-26 23:46 | 44.47999 | -110.02364 | 34039 ft | 409 kts | 212° |
| 2026-04-26 23:47 | 44.45558 | -110.04412 | 34261 ft | 410 kts | 212° |
| 2026-04-26 23:47 | 44.43107 | -110.06459 | 34472 ft | 411 kts | 212° |
| 2026-04-26 23:47 | 44.40652 | -110.08501 | 34690 ft | 411 kts | 212° |
| 2026-04-26 23:47 | 44.39023 | -110.09858 | 34835 ft | 412 kts | 212° |
| 2026-04-26 23:48 | 44.35765 | -110.12583 | 35103 ft | 413 kts | 212° |
| 2026-04-26 23:48 | 44.34097 | -110.13980 | 35185 ft | 415 kts | 212° |
| 2026-04-26 23:48 | 44.31615 | -110.16050 | 35399 ft | 415 kts | 212° |
| 2026-04-26 23:48 | 44.29133 | -110.18114 | 35652 ft | 415 kts | 212° |
| 2026-04-26 23:49 | 44.26653 | -110.20176 | 35898 ft | 414 kts | 212° |
| 2026-04-26 23:49 | 44.24173 | -110.22236 | 36095 ft | 415 kts | 212° |
| 2026-04-26 23:49 | 44.21690 | -110.24297 | 36294 ft | 416 kts | 212° |
| 2026-04-26 23:49 | 44.19205 | -110.26358 | 36483 ft | 416 kts | 212° |
| 2026-04-26 23:50 | 44.16718 | -110.28419 | 36661 ft | 416 kts | 212° |
| 2026-04-26 23:50 | 44.14224 | -110.30483 | 36856 ft | 417 kts | 212° |
| 2026-04-26 23:50 | 44.11729 | -110.32547 | 37018 ft | 417 kts | 212° |
| 2026-04-26 23:50 | 44.09234 | -110.34610 | 37193 ft | 418 kts | 212° |
| 2026-04-26 23:51 | 44.06734 | -110.36676 | 37386 ft | 418 kts | 212° |
| 2026-04-26 23:51 | 44.04227 | -110.38743 | 37604 ft | 418 kts | 212° |
| 2026-04-26 23:51 | 44.01728 | -110.40800 | 37775 ft | 418 kts | 212° |
| 2026-04-26 23:51 | 43.99227 | -110.42856 | 37795 ft | 417 kts | 212° |
| 2026-04-26 23:52 | 43.94236 | -110.46956 | 37793 ft | 417 kts | 212° |
| 2026-04-26 23:52 | 43.89247 | -110.51044 | 37774 ft | 417 kts | 212° |
| 2026-04-26 23:53 | 43.84239 | -110.55142 | 37803 ft | 418 kts | 212° |
| 2026-04-26 23:53 | 43.79236 | -110.59228 | 37800 ft | 417 kts | 212° |
| 2026-04-26 23:54 | 43.74278 | -110.63267 | 37756 ft | 416 kts | 212° |
| 2026-04-26 23:54 | 43.69301 | -110.67315 | 37743 ft | 415 kts | 212° |
| 2026-04-26 23:55 | 43.64314 | -110.71328 | 37756 ft | 416 kts | 210° |
| 2026-04-26 23:55 | 43.61795 | -110.73058 | 37756 ft | 420 kts | 206° |
| 2026-04-26 23:56 | 43.58331 | -110.74954 | 37807 ft | 427 kts | 201° |
| 2026-04-26 23:56 | 43.52635 | -110.77534 | 37810 ft | 433 kts | 200° |
| 2026-04-26 23:57 | 43.46931 | -110.80142 | 37804 ft | 431 kts | 201° |
| 2026-04-26 23:57 | 43.41226 | -110.82759 | 37797 ft | 433 kts | 201° |
| 2026-04-26 23:58 | 43.35510 | -110.85376 | 37790 ft | 433 kts | 200° |
| 2026-04-26 23:58 | 43.29831 | -110.88109 | 37793 ft | 431 kts | 208° |
| 2026-04-26 23:59 | 43.27296 | -110.90274 | 37794 ft | 428 kts | 220° |
| 2026-04-26 23:59 | 43.25192 | -110.93142 | 37787 ft | 427 kts | 231° |
| 2026-04-26 23:59 | 43.21456 | -110.99497 | 37787 ft | 428 kts | 231° |
| 2026-04-27 00:00 | 43.19471 | -111.02857 | 37794 ft | 429 kts | 231° |